This is the latest recevied weather packets stored in our database for station/object W1CAT. If no packets are shown the sender has not sent any weather packets the latest 10 day(s).
| Time | Temp. | Humidity | Pressure | Rain* | Wind** | Luminosity | Snow |
|---|---|---|---|---|---|---|---|
| 1777908299 | 10.56° C | 47% | - | 0 mm | - | - | - |
| 1777907996 | 10° C | 49% | - | 0 mm | - | - | - |
| 1777907691 | 10.56° C | 49% | - | 0 mm | - | - | - |
| 1777907387 | 10.56° C | 47% | - | 0 mm | - | - | - |
| 1777907083 | 10.56° C | 48% | - | 0 mm | - | - | - |
| 1777906781 | 10° C | 51% | - | 0 mm | - | - | - |
| 1777906478 | 10° C | 54% | - | 0 mm | - | - | - |
| 1777906174 | 8.89° C | 54% | - | 0 mm | - | - | - |
| 1777905871 | 8.33° C | 56% | - | 0 mm | - | - | - |
| 1777905568 | 8.33° C | 57% | - | 0 mm | - | - | - |
| 1777905265 | 7.78° C | 58% | - | 0 mm | - | - | - |
| 1777904962 | 7.78° C | 60% | - | 0 mm | - | - | - |
| 1777904659 | 7.78° C | 59% | - | 0 mm | - | - | - |
| 1777904356 | 7.22° C | 62% | - | 0 mm | - | - | - |
| 1777904053 | 7.22° C | 62% | - | 0 mm | - | - | - |
| 1777903750 | 7.78° C | 60% | - | 0 mm | - | - | - |
| 1777903445 | 8.33° C | 56% | - | 0 mm | - | - | - |
| 1777903142 | 8.33° C | 54% | - | 0 mm | - | - | - |
| 1777902839 | 8.89° C | 51% | - | 0 mm | - | - | - |
| 1777902536 | 8.89° C | 52% | - | 0 mm | - | - | - |
| 1777902233 | 8.33° C | 53% | - | 0 mm | - | - | - |
| 1777901931 | 8.33° C | 52% | - | 0 mm | - | - | - |
| 1777901629 | 8.89° C | 51% | - | 0 mm | - | - | - |
| 1777901326 | 8.33° C | 51% | - | 0 mm | - | - | - |
| 1777901023 | 7.78° C | 51% | - | 0 mm | - | - | - |
* Rain latest hour (hover to see other rain measurements)
** Current wind speed in m/s (hover to see current wind gust speed)